Sugarcreek, Ohio
Current Conditions -  °F | °C
As of 3:03 PM on Friday 28 Nov 2014 (Local Time) from KPHD Reporting Station
Broken Clouds Broken Clouds  
Wind Chill: 23°   Ceiling: 3400
Heat Index: 29°   Visibility: 10mi
Dew Point: 18°   Wind: 6mph
Humidity: 64%   Direction: 210°SSW
Pressure: 30.26"   Gusts: NA
Location:  40.5°N, 81.64°W
Report Text: KPHD 282003Z AUTO 21005KT 10SM SCT029 BKN034 M02/M08 A3026 RMK AO2 T10171078
Loading
Personal Weather Stations






























Interactive Weather Map New forecast layout! Learn more

10-Day Weather Forecast

Advertisements
Track Severe Weather on mobile